MSR69 HECA-OERK
Flight info
| Callsign | MSR69 |
|---|---|
| Flight time | N/A |
| Altitude | 41000 |
| Route | CVO L677 MENLI N697 SISIK W976 TAKSU L550 KARIK B411 DEESA Y415 NIMAR G662 KUNEK |
| Aircraft | A359/H-SDE2E3GHIJ3J4J5LM1ORWXY/LB1D1 |
Departure
| Time | 2026-04-28 21:16 |
|---|---|
| Airport | Cairo International Airport (HECA) |
Arrival
| Time | N/A |
|---|---|
| Airport | King Khalid International Airport (OERK) |
| Time | Latitude | Longitude | Altitude | Speed | Heading |
|---|---|---|---|---|---|
| 2026-04-28 20:55 | 30.10776 | 31.39517 | 376 ft | 0 kts | 75° |
| 2026-04-28 21:08 | 30.10776 | 31.39516 | 376 ft | 1 kts | 75° |
| 2026-04-28 21:08 | 30.10772 | 31.39498 | 376 ft | 3 kts | 78° |
| 2026-04-28 21:08 | 30.10768 | 31.39475 | 376 ft | 3 kts | 85° |
| 2026-04-28 21:08 | 30.10768 | 31.39452 | 376 ft | 3 kts | 101° |
| 2026-04-28 21:09 | 30.10774 | 31.39433 | 376 ft | 3 kts | 139° |
| 2026-04-28 21:09 | 30.10783 | 31.39426 | 376 ft | 1 kts | 165° |
| 2026-04-28 21:09 | 30.10786 | 31.39425 | 376 ft | 0 kts | 165° |
| 2026-04-28 21:11 | 30.10770 | 31.39430 | 376 ft | 6 kts | 165° |
| 2026-04-28 21:12 | 30.10715 | 31.39447 | 376 ft | 10 kts | 165° |
| 2026-04-28 21:12 | 30.10639 | 31.39472 | 376 ft | 12 kts | 154° |
| 2026-04-28 21:12 | 30.10608 | 31.39550 | 376 ft | 12 kts | 90° |
| 2026-04-28 21:12 | 30.10625 | 31.39655 | 376 ft | 13 kts | 89° |
| 2026-04-28 21:13 | 30.10565 | 31.39730 | 376 ft | 14 kts | 160° |
| 2026-04-28 21:13 | 30.10475 | 31.39758 | 381 ft | 13 kts | 165° |
| 2026-04-28 21:13 | 30.10391 | 31.39782 | 385 ft | 12 kts | 174° |
| 2026-04-28 21:13 | 30.10325 | 31.39745 | 389 ft | 10 kts | 224° |
| 2026-04-28 21:14 | 30.10280 | 31.39693 | 392 ft | 10 kts | 225° |
| 2026-04-28 21:14 | 30.10233 | 31.39632 | 394 ft | 10 kts | 231° |
| 2026-04-28 21:14 | 30.10180 | 31.39577 | 390 ft | 11 kts | 201° |
| 2026-04-28 21:14 | 30.10105 | 31.39608 | 391 ft | 18 kts | 144° |
| 2026-04-28 21:15 | 30.10019 | 31.39704 | 390 ft | 14 kts | 120° |
| 2026-04-28 21:15 | 30.10004 | 31.39809 | 391 ft | 7 kts | 84° |
| 2026-04-28 21:15 | 30.10021 | 31.39884 | 389 ft | 13 kts | 69° |
| 2026-04-28 21:15 | 30.10074 | 31.39970 | 391 ft | 14 kts | 50° |
| 2026-04-28 21:16 | 30.10221 | 31.40167 | 389 ft | 66 kts | 49° |
| 2026-04-28 21:16 | 30.10687 | 31.40785 | 393 ft | 135 kts | 49° |
| 2026-04-28 21:16 | 30.11423 | 31.41771 | 543 ft | 180 kts | 47° |
| 2026-04-28 21:16 | 30.12279 | 31.42916 | 1108 ft | 196 kts | 48° |
| 2026-04-28 21:17 | 30.13215 | 31.44165 | 1709 ft | 215 kts | 48° |
| 2026-04-28 21:17 | 30.14249 | 31.45542 | 2197 ft | 239 kts | 47° |
| 2026-04-28 21:17 | 30.15366 | 31.47023 | 2944 ft | 248 kts | 47° |
| 2026-04-28 21:17 | 30.16453 | 31.48595 | 3812 ft | 254 kts | 54° |
| 2026-04-28 21:18 | 30.17181 | 31.50498 | 4570 ft | 268 kts | 73° |
| 2026-04-28 21:18 | 30.17298 | 31.52688 | 5323 ft | 280 kts | 96° |
| 2026-04-28 21:18 | 30.16689 | 31.54833 | 6229 ft | 284 kts | 119° |
| 2026-04-28 21:18 | 30.15440 | 31.56593 | 7167 ft | 285 kts | 141° |
| 2026-04-28 21:19 | 30.13869 | 31.57998 | 8115 ft | 287 kts | 147° |
| 2026-04-28 21:19 | 30.12191 | 31.59264 | 9105 ft | 290 kts | 150° |
| 2026-04-28 21:19 | 30.10455 | 31.60483 | 10074 ft | 294 kts | 151° |
| 2026-04-28 21:19 | 30.08660 | 31.61725 | 10697 ft | 311 kts | 151° |
| 2026-04-28 21:20 | 30.06741 | 31.63070 | 11081 ft | 334 kts | 151° |
| 2026-04-28 21:20 | 30.04719 | 31.64522 | 11657 ft | 349 kts | 150° |
| 2026-04-28 21:20 | 30.02647 | 31.66042 | 12444 ft | 357 kts | 150° |
| 2026-04-28 21:20 | 30.00542 | 31.67604 | 13255 ft | 363 kts | 149° |
| 2026-04-28 21:21 | 29.98397 | 31.69203 | 14043 ft | 370 kts | 149° |
| 2026-04-28 21:21 | 29.96223 | 31.70825 | 14797 ft | 375 kts | 150° |
| 2026-04-28 21:21 | 29.94024 | 31.72464 | 15576 ft | 379 kts | 150° |
| 2026-04-28 21:21 | 29.91795 | 31.74121 | 16353 ft | 383 kts | 150° |
| 2026-04-28 21:22 | 29.89543 | 31.75792 | 17118 ft | 387 kts | 150° |
| 2026-04-28 21:22 | 29.87268 | 31.77478 | 17872 ft | 391 kts | 150° |
| 2026-04-28 21:22 | 29.84964 | 31.79183 | 18593 ft | 396 kts | 151° |
| 2026-04-28 21:22 | 29.83424 | 31.80322 | 19041 ft | 398 kts | 151° |
| 2026-04-28 21:23 | 29.80292 | 31.82639 | 20013 ft | 403 kts | 152° |
| 2026-04-28 21:23 | 29.77915 | 31.84395 | 20698 ft | 408 kts | 152° |
| 2026-04-28 21:23 | 29.75511 | 31.86169 | 21348 ft | 414 kts | 152° |
| 2026-04-28 21:23 | 29.73073 | 31.87967 | 21987 ft | 419 kts | 152° |
| 2026-04-28 21:24 | 29.70608 | 31.89784 | 22671 ft | 423 kts | 152° |
| 2026-04-28 21:24 | 29.68119 | 31.91619 | 23349 ft | 427 kts | 153° |
| 2026-04-28 21:24 | 29.65600 | 31.93476 | 23949 ft | 432 kts | 153° |
| 2026-04-28 21:24 | 29.63058 | 31.95347 | 24472 ft | 437 kts | 153° |
| 2026-04-28 21:25 | 29.60482 | 31.97243 | 25006 ft | 442 kts | 153° |
| 2026-04-28 21:25 | 29.57879 | 31.99157 | 25526 ft | 447 kts | 153° |
| 2026-04-28 21:25 | 29.55247 | 32.01092 | 26048 ft | 452 kts | 153° |
| 2026-04-28 21:25 | 29.52587 | 32.03046 | 26588 ft | 456 kts | 153° |
| 2026-04-28 21:26 | 29.49904 | 32.05017 | 27105 ft | 460 kts | 153° |
| 2026-04-28 21:26 | 29.47188 | 32.07009 | 27642 ft | 466 kts | 153° |
| 2026-04-28 21:26 | 29.44447 | 32.09019 | 28142 ft | 470 kts | 153° |
| 2026-04-28 21:26 | 29.41708 | 32.11026 | 28627 ft | 475 kts | 153° |
| 2026-04-28 21:27 | 29.38871 | 32.13103 | 29122 ft | 480 kts | 153° |
| 2026-04-28 21:27 | 29.36083 | 32.15143 | 29596 ft | 484 kts | 153° |
| 2026-04-28 21:27 | 29.33232 | 32.17229 | 30068 ft | 489 kts | 153° |
| 2026-04-28 21:27 | 29.30314 | 32.19361 | 30456 ft | 493 kts | 153° |
| 2026-04-28 21:28 | 29.27409 | 32.21483 | 30847 ft | 497 kts | 153° |
| 2026-04-28 21:28 | 29.24524 | 32.23589 | 31223 ft | 500 kts | 153° |
| 2026-04-28 21:28 | 29.21578 | 32.25738 | 31594 ft | 504 kts | 154° |
| 2026-04-28 21:28 | 29.18570 | 32.27930 | 31972 ft | 507 kts | 154° |
| 2026-04-28 21:29 | 29.15621 | 32.30077 | 32319 ft | 511 kts | 154° |
| 2026-04-28 21:29 | 29.12572 | 32.32296 | 32680 ft | 514 kts | 154° |
| 2026-04-28 21:29 | 29.09588 | 32.34466 | 33025 ft | 517 kts | 154° |
| 2026-04-28 21:29 | 29.06540 | 32.36681 | 33370 ft | 520 kts | 154° |
| 2026-04-28 21:30 | 29.03477 | 32.38906 | 33690 ft | 523 kts | 154° |
| 2026-04-28 21:30 | 29.00398 | 32.41140 | 33982 ft | 527 kts | 155° |
| 2026-04-28 21:30 | 28.97290 | 32.43393 | 34239 ft | 530 kts | 155° |
| 2026-04-28 21:30 | 28.94170 | 32.45654 | 34494 ft | 533 kts | 155° |
| 2026-04-28 21:31 | 28.90994 | 32.47956 | 34816 ft | 534 kts | 154° |
| 2026-04-28 21:31 | 28.87905 | 32.50194 | 35181 ft | 533 kts | 155° |
| 2026-04-28 21:31 | 28.84766 | 32.52467 | 35470 ft | 534 kts | 155° |
| 2026-04-28 21:31 | 28.81626 | 32.54738 | 35741 ft | 535 kts | 155° |
| 2026-04-28 21:32 | 28.78482 | 32.57008 | 36031 ft | 536 kts | 155° |
| 2026-04-28 21:32 | 28.75333 | 32.59280 | 36338 ft | 536 kts | 155° |
| 2026-04-28 21:32 | 28.72181 | 32.61552 | 36643 ft | 537 kts | 155° |
| 2026-04-28 21:32 | 28.69028 | 32.63824 | 36980 ft | 535 kts | 155° |
| 2026-04-28 21:33 | 28.65881 | 32.66092 | 37341 ft | 534 kts | 155° |
| 2026-04-28 21:33 | 28.62741 | 32.68352 | 37621 ft | 535 kts | 155° |
| 2026-04-28 21:33 | 28.59598 | 32.70611 | 37894 ft | 535 kts | 155° |
| 2026-04-28 21:33 | 28.56447 | 32.72874 | 38160 ft | 535 kts | 155° |
| 2026-04-28 21:34 | 28.53297 | 32.75134 | 38388 ft | 535 kts | 155° |
| 2026-04-28 21:34 | 28.50157 | 32.77387 | 38719 ft | 533 kts | 155° |
| 2026-04-28 21:34 | 28.47021 | 32.79637 | 38979 ft | 532 kts | 155° |
| 2026-04-28 21:34 | 28.43894 | 32.81878 | 39223 ft | 531 kts | 155° |
| 2026-04-28 21:35 | 28.40778 | 32.84110 | 39489 ft | 529 kts | 155° |
| 2026-04-28 21:35 | 28.37667 | 32.86336 | 39745 ft | 528 kts | 155° |
| 2026-04-28 21:35 | 28.34560 | 32.88558 | 40004 ft | 526 kts | 155° |
| 2026-04-28 21:35 | 28.31472 | 32.90765 | 40300 ft | 523 kts | 156° |
| 2026-04-28 21:36 | 28.28401 | 32.92959 | 40610 ft | 520 kts | 156° |
| 2026-04-28 21:36 | 28.25343 | 32.95141 | 40840 ft | 519 kts | 156° |
| 2026-04-28 21:36 | 28.19218 | 32.99499 | 40987 ft | 522 kts | 156° |
| 2026-04-28 21:37 | 28.13012 | 33.03904 | 40988 ft | 529 kts | 156° |
| 2026-04-28 21:37 | 28.06775 | 33.08338 | 40977 ft | 529 kts | 156° |
| 2026-04-28 21:38 | 28.00550 | 33.12778 | 40971 ft | 530 kts | 155° |
| 2026-04-28 21:38 | 27.94491 | 33.17617 | 40967 ft | 534 kts | 152° |
| 2026-04-28 21:39 | 27.88522 | 33.22619 | 40963 ft | 534 kts | 152° |
| 2026-04-28 21:39 | 27.82540 | 33.27555 | 40960 ft | 532 kts | 153° |
| 2026-04-28 21:40 | 27.76530 | 33.32436 | 40954 ft | 531 kts | 154° |
| 2026-04-28 21:40 | 27.70518 | 33.37290 | 40956 ft | 532 kts | 153° |
| 2026-04-28 21:41 | 27.64499 | 33.42147 | 40957 ft | 532 kts | 153° |
| 2026-04-28 21:41 | 27.58481 | 33.46997 | 40944 ft | 532 kts | 153° |
| 2026-04-28 21:42 | 27.53480 | 33.51023 | 40951 ft | 532 kts | 153° |
| 2026-04-28 21:42 | 27.47458 | 33.55870 | 40946 ft | 531 kts | 153° |
| 2026-04-28 21:43 | 27.41437 | 33.60701 | 40961 ft | 532 kts | 153° |
| 2026-04-28 21:43 | 27.35411 | 33.65530 | 40960 ft | 532 kts | 153° |
| 2026-04-28 21:44 | 27.29388 | 33.70353 | 40946 ft | 531 kts | 154° |
| 2026-04-28 21:44 | 27.23371 | 33.75171 | 40965 ft | 532 kts | 153° |
| 2026-04-28 21:45 | 27.20503 | 33.77860 | 40965 ft | 543 kts | 144° |
| 2026-04-28 21:45 | 27.17991 | 33.81077 | 40965 ft | 555 kts | 133° |
| 2026-04-28 21:45 | 27.15987 | 33.84833 | 40969 ft | 566 kts | 120° |
| 2026-04-28 21:45 | 27.14361 | 33.88866 | 40964 ft | 569 kts | 118° |
| 2026-04-28 21:46 | 27.11413 | 33.97128 | 40939 ft | 571 kts | 116° |
| 2026-04-28 21:46 | 27.08547 | 34.05454 | 40946 ft | 571 kts | 116° |
| 2026-04-28 21:47 | 27.05637 | 34.13741 | 40930 ft | 571 kts | 117° |
| 2026-04-28 21:47 | 27.02687 | 34.22001 | 40906 ft | 570 kts | 117° |
| 2026-04-28 21:48 | 26.99726 | 34.30247 | 40922 ft | 570 kts | 117° |
| 2026-04-28 21:48 | 26.96760 | 34.38482 | 40919 ft | 570 kts | 117° |
| 2026-04-28 21:49 | 26.93788 | 34.46721 | 40914 ft | 570 kts | 117° |
| 2026-04-28 21:49 | 26.90817 | 34.54946 | 40908 ft | 569 kts | 118° |
| 2026-04-28 21:50 | 26.87841 | 34.63168 | 40906 ft | 569 kts | 118° |
| 2026-04-28 21:50 | 26.84861 | 34.71385 | 40905 ft | 569 kts | 118° |
| 2026-04-28 21:51 | 26.81877 | 34.79597 | 40902 ft | 569 kts | 118° |
| 2026-04-28 21:51 | 26.78891 | 34.87795 | 40903 ft | 569 kts | 118° |
| 2026-04-28 21:52 | 26.75633 | 34.96720 | 40898 ft | 569 kts | 118° |
| 2026-04-28 21:52 | 26.72641 | 35.04909 | 40900 ft | 569 kts | 118° |
| 2026-04-28 21:53 | 26.69644 | 35.13092 | 40903 ft | 569 kts | 118° |
| 2026-04-28 21:53 | 26.66643 | 35.21267 | 40899 ft | 569 kts | 118° |
| 2026-04-28 21:54 | 26.63635 | 35.29447 | 40894 ft | 569 kts | 118° |
| 2026-04-28 21:54 | 26.60624 | 35.37617 | 40896 ft | 569 kts | 118° |
| 2026-04-28 21:55 | 26.57608 | 35.45785 | 40900 ft | 568 kts | 118° |
| 2026-04-28 21:55 | 26.54570 | 35.53934 | 40894 ft | 568 kts | 119° |
| 2026-04-28 21:56 | 26.51463 | 35.62043 | 40897 ft | 568 kts | 120° |
| 2026-04-28 21:56 | 26.48349 | 35.70132 | 40899 ft | 568 kts | 119° |
| 2026-04-28 21:57 | 26.45237 | 35.78235 | 40850 ft | 567 kts | 119° |
| 2026-04-28 21:57 | 26.42134 | 35.86318 | 40898 ft | 566 kts | 119° |
| 2026-04-28 21:58 | 26.39035 | 35.94378 | 40897 ft | 565 kts | 119° |
| 2026-04-28 21:58 | 26.35929 | 36.02434 | 40897 ft | 565 kts | 119° |
| 2026-04-28 21:59 | 26.32819 | 36.10485 | 40897 ft | 565 kts | 119° |
| 2026-04-28 22:00 | 26.28145 | 36.22556 | 40903 ft | 565 kts | 120° |
| 2026-04-28 22:00 | 26.25025 | 36.30595 | 40908 ft | 564 kts | 120° |
| 2026-04-28 22:01 | 26.22439 | 36.37248 | 40914 ft | 564 kts | 120° |
| 2026-04-28 22:01 | 26.19146 | 36.46739 | 40912 ft | 572 kts | 108° |
| 2026-04-28 22:02 | 26.18543 | 36.54158 | 40914 ft | 580 kts | 88° |
| 2026-04-28 22:02 | 26.19232 | 36.63118 | 40897 ft | 581 kts | 84° |
| 2026-04-28 22:03 | 26.20197 | 36.72064 | 40905 ft | 582 kts | 84° |
| 2026-04-28 22:03 | 26.21157 | 36.81022 | 40912 ft | 582 kts | 84° |
| 2026-04-28 22:04 | 26.22063 | 36.89978 | 40904 ft | 582 kts | 85° |
| 2026-04-28 22:04 | 26.22934 | 36.98875 | 40913 ft | 582 kts | 85° |
| 2026-04-28 22:05 | 26.23803 | 37.07828 | 40924 ft | 581 kts | 85° |
| 2026-04-28 22:05 | 26.24666 | 37.16764 | 40935 ft | 580 kts | 85° |
| 2026-04-28 22:06 | 26.25527 | 37.25695 | 40934 ft | 579 kts | 85° |
| 2026-04-28 22:06 | 26.26382 | 37.34623 | 40951 ft | 580 kts | 85° |
| 2026-04-28 22:07 | 26.27230 | 37.43555 | 40955 ft | 581 kts | 85° |
| 2026-04-28 22:07 | 26.28075 | 37.52505 | 40943 ft | 580 kts | 85° |
| 2026-04-28 22:08 | 26.28912 | 37.61436 | 40949 ft | 579 kts | 85° |
| 2026-04-28 22:08 | 26.29743 | 37.70360 | 40951 ft | 579 kts | 85° |
| 2026-04-28 22:09 | 26.30570 | 37.79282 | 40946 ft | 578 kts | 85° |
| 2026-04-28 22:09 | 26.31391 | 37.88194 | 40934 ft | 578 kts | 85° |
| 2026-04-28 22:10 | 26.32207 | 37.97120 | 40923 ft | 579 kts | 86° |
| 2026-04-28 22:10 | 26.33017 | 38.06061 | 40934 ft | 580 kts | 86° |
| 2026-04-28 22:11 | 26.33826 | 38.15008 | 40939 ft | 580 kts | 86° |
| 2026-04-28 22:12 | 26.35391 | 38.32536 | 40944 ft | 580 kts | 86° |
| 2026-04-28 22:12 | 26.36306 | 38.42930 | 40950 ft | 579 kts | 86° |
| 2026-04-28 22:13 | 26.37087 | 38.51872 | 40980 ft | 580 kts | 86° |
| 2026-04-28 22:13 | 26.37739 | 38.59377 | 40960 ft | 581 kts | 86° |
| 2026-04-28 22:14 | 26.38512 | 38.68349 | 40962 ft | 581 kts | 86° |
| 2026-04-28 22:14 | 26.39275 | 38.77257 | 40970 ft | 581 kts | 86° |
| 2026-04-28 22:15 | 26.40036 | 38.86222 | 40977 ft | 581 kts | 86° |
| 2026-04-28 22:15 | 26.40792 | 38.95186 | 40973 ft | 580 kts | 86° |
| 2026-04-28 22:16 | 26.41543 | 39.04152 | 40981 ft | 580 kts | 86° |
| 2026-04-28 22:16 | 26.42287 | 39.13113 | 40966 ft | 580 kts | 86° |
| 2026-04-28 22:17 | 26.43027 | 39.22086 | 40979 ft | 581 kts | 86° |